createdAt,value
2022-10-31T00:00:27.867Z,10.95
2022-10-31T00:02:54.556Z,13.48
2022-10-31T00:05:21.849Z,7.97
2022-10-31T00:07:48.406Z,6.50
2022-10-31T00:10:14.925Z,6.57
2022-10-31T00:12:41.627Z,21.48
2022-10-31T00:15:08.391Z,9.10
2022-10-31T00:17:37.107Z,5.63
2022-10-31T00:20:04.219Z,9.88
2022-10-31T00:22:30.899Z,12.30
2022-10-31T00:24:57.421Z,5.68
2022-10-31T00:27:24.091Z,9.95
2022-10-31T00:29:50.630Z,13.98
2022-10-31T00:32:17.165Z,10.57
2022-10-31T00:34:43.669Z,6.20
2022-10-31T00:37:10.175Z,4.68
2022-10-31T00:39:36.727Z,7.65
2022-10-31T00:42:03.370Z,5.88
2022-10-31T00:44:29.921Z,8.38
2022-10-31T00:46:56.533Z,7.93
2022-10-31T00:49:23.047Z,14.45
2022-10-31T00:51:49.655Z,6.40
2022-10-31T00:54:16.123Z,7.53
2022-10-31T00:56:42.662Z,11.80
2022-10-31T00:59:09.188Z,10.60
2022-10-31T01:01:35.855Z,9.88
2022-10-31T01:04:02.473Z,10.55
2022-10-31T01:06:29.120Z,7.45
2022-10-31T01:08:57.883Z,6.95
2022-10-31T01:11:24.683Z,9.23
2022-10-31T01:13:54.108Z,5.50
2022-10-31T01:16:24.375Z,11.70
2022-10-31T01:18:52.289Z,9.43
2022-10-31T01:21:22.518Z,14.45
2022-10-31T01:23:50.238Z,9.30
2022-10-31T01:26:19.982Z,6.57
2022-10-31T01:28:49.868Z,6.80
2022-10-31T01:31:18.625Z,8.65
2022-10-31T01:33:46.132Z,7.78
2022-10-31T01:36:25.171Z,5.00
2022-10-31T01:38:54.173Z,7.60
2022-10-31T01:41:24.218Z,6.70
2022-10-31T01:43:56.768Z,4.97
2022-10-31T01:46:30.812Z,7.93
2022-10-31T01:49:00.139Z,10.77
2022-10-31T01:51:31.145Z,6.13
2022-10-31T01:54:04.442Z,5.60
2022-10-31T01:56:32.809Z,6.60
2022-10-31T01:59:03.304Z,9.27
2022-10-31T02:01:30.450Z,6.28
2022-10-31T02:03:57.325Z,6.90
2022-10-31T02:06:33.730Z,10.65
2022-10-31T02:09:02.657Z,7.10
2022-10-31T02:11:30.324Z,10.48
2022-10-31T02:13:59.026Z,9.20
2022-10-31T02:16:25.636Z,8.45
2022-10-31T02:18:54.139Z,12.35
2022-10-31T02:21:34.233Z,13.55
2022-10-31T02:24:09.428Z,9.63
2022-10-31T02:26:58.022Z,13.07
2022-10-31T02:29:56.481Z,12.32
2022-10-31T02:32:30.387Z,4.90
2022-10-31T02:35:00.302Z,6.95
2022-10-31T02:37:49.813Z,6.47
2022-10-31T02:40:33.519Z,7.03
2022-10-31T02:43:37.417Z,6.95
2022-10-31T02:46:16.388Z,10.75
2022-10-31T02:48:45.902Z,11.27
2022-10-31T02:51:13.140Z,8.27
2022-10-31T02:53:40.502Z,7.07
2022-10-31T02:56:17.603Z,9.52
2022-10-31T02:58:50.462Z,7.75
2022-10-31T03:01:23.360Z,5.57
2022-10-31T03:03:55.595Z,6.47
2022-10-31T03:06:33.169Z,7.85
2022-10-31T03:09:26.192Z,11.20
2022-10-31T03:12:07.984Z,7.93
2022-10-31T03:14:58.034Z,5.00
2022-10-31T03:17:59.995Z,14.52
2022-10-31T03:20:51.381Z,6.95
2022-10-31T03:23:21.172Z,13.88
2022-10-31T03:25:52.359Z,6.07
2022-10-31T03:28:23.507Z,7.93
2022-10-31T03:30:53.647Z,8.57
2022-10-31T03:33:27.099Z,13.15
2022-10-31T03:35:58.253Z,9.10
2022-10-31T03:38:24.834Z,8.27
2022-10-31T03:40:56.849Z,10.57
2022-10-31T03:43:29.876Z,9.73
2022-10-31T03:45:56.943Z,9.63
2022-10-31T03:48:24.263Z,9.13
2022-10-31T03:51:30.589Z,10.68
2022-10-31T03:54:18.236Z,4.75
2022-10-31T03:56:54.184Z,12.32
2022-10-31T03:59:33.693Z,9.70
2022-10-31T04:02:11.651Z,14.50
2022-10-31T04:04:39.664Z,7.72
2022-10-31T04:07:08.258Z,9.25
2022-10-31T04:09:39.278Z,7.57
2022-10-31T04:12:09.795Z,9.02
2022-10-31T04:14:57.790Z,6.88
2022-10-31T04:17:28.858Z,6.55
2022-10-31T04:19:55.770Z,10.60
2022-10-31T04:22:22.409Z,8.70
2022-10-31T04:24:49.164Z,9.23
2022-10-31T04:27:17.325Z,7.82
2022-10-31T04:29:46.852Z,9.85
2022-10-31T04:32:16.893Z,8.27
2022-10-31T04:34:43.470Z,12.15
2022-10-31T04:37:11.090Z,7.35
2022-10-31T04:39:38.234Z,6.80
2022-10-31T04:42:23.346Z,9.95
2022-10-31T04:44:49.950Z,4.28
2022-10-31T04:47:16.570Z,8.57
2022-10-31T04:49:43.585Z,9.15
2022-10-31T04:52:12.035Z,11.80
2022-10-31T04:54:38.625Z,13.00
2022-10-31T04:57:27.795Z,10.63
2022-10-31T04:59:54.949Z,10.82
2022-10-31T05:02:23.935Z,8.05
2022-10-31T05:04:55.376Z,18.50
2022-10-31T05:07:21.923Z,13.40
2022-10-31T05:09:49.370Z,11.90
2022-10-31T05:12:18.892Z,12.00
2022-10-31T05:15:04.996Z,8.30
2022-10-31T05:17:55.398Z,15.25
2022-10-31T05:23:17.818Z,9.55
2022-10-31T05:25:44.329Z,8.00
2022-10-31T05:28:12.646Z,12.00
2022-10-31T05:30:39.395Z,11.65
2022-10-31T05:33:12.002Z,7.13
2022-10-31T05:35:41.406Z,6.63
2022-10-31T05:38:34.041Z,9.07
2022-10-31T05:43:36.917Z,8.85
2022-10-31T05:46:06.064Z,13.65
2022-10-31T05:48:51.207Z,10.20
2022-10-31T05:51:36.253Z,9.53
2022-10-31T05:54:04.503Z,8.55
2022-10-31T05:56:31.377Z,8.93
2022-10-31T05:58:58.142Z,14.35
2022-10-31T06:01:25.985Z,9.77
2022-10-31T06:03:52.615Z,10.05
2022-10-31T06:06:20.509Z,6.40
2022-10-31T06:08:47.026Z,18.98
2022-10-31T06:11:17.932Z,7.03
2022-10-31T06:14:05.742Z,11.27
2022-10-31T06:16:55.106Z,7.10
2022-10-31T06:19:41.952Z,7.38
2022-10-31T06:22:12.348Z,15.48
2022-10-31T06:24:39.431Z,9.80
2022-10-31T06:27:21.798Z,6.18
2022-10-31T06:29:49.048Z,11.70
2022-10-31T06:32:31.467Z,11.13
2022-10-31T06:34:58.615Z,9.43
2022-10-31T06:37:25.380Z,7.95
2022-10-31T06:39:54.189Z,15.05
2022-10-31T06:42:20.868Z,11.05
2022-10-31T06:44:47.993Z,12.70
2022-10-31T06:47:35.284Z,8.30
2022-10-31T06:50:11.776Z,11.00
2022-10-31T06:52:38.350Z,10.05
2022-10-31T06:55:05.223Z,9.82
2022-10-31T06:57:33.254Z,9.70
2022-10-31T06:59:59.914Z,12.48
2022-10-31T07:03:01.253Z,12.10
2022-10-31T07:05:29.908Z,14.23
2022-10-31T07:07:58.796Z,10.93
2022-10-31T07:10:27.986Z,11.45
2022-10-31T07:13:03.153Z,11.55
2022-10-31T07:15:37.526Z,10.70
2022-10-31T07:18:05.974Z,9.57
2022-10-31T07:20:34.514Z,18.67
2022-10-31T07:23:02.640Z,16.05
2022-10-31T07:25:31.280Z,10.10
2022-10-31T07:28:15.644Z,8.88
2022-10-31T07:30:50.846Z,12.00
2022-10-31T07:33:19.614Z,10.63
2022-10-31T07:36:05.240Z,8.98
2022-10-31T07:38:33.480Z,8.30
2022-10-31T07:41:03.986Z,12.77
2022-10-31T07:43:32.470Z,9.43
2022-10-31T07:46:28.045Z,15.00
2022-10-31T07:49:13.193Z,11.23
2022-10-31T07:51:58.636Z,12.27
2022-10-31T07:54:43.770Z,10.15
2022-10-31T07:57:10.299Z,13.40
2022-10-31T07:59:38.281Z,11.82
2022-10-31T08:02:06.669Z,10.65
2022-10-31T08:04:49.598Z,8.93
2022-10-31T08:07:38.261Z,9.00
2022-10-31T08:10:07.554Z,13.38
2022-10-31T08:12:35.043Z,20.27
2022-10-31T08:15:03.130Z,10.45
2022-10-31T08:17:30.563Z,12.77
2022-10-31T08:19:59.753Z,14.32
2022-10-31T08:22:31.866Z,10.32
2022-10-31T08:24:59.304Z,14.05
2022-10-31T08:27:25.994Z,14.20
2022-10-31T08:29:54.129Z,13.27
2022-10-31T08:32:23.166Z,12.60
2022-10-31T08:34:53.065Z,10.43
2022-10-31T08:37:43.748Z,12.02
2022-10-31T08:40:11.983Z,16.65
2022-10-31T08:42:38.526Z,10.57
2022-10-31T08:45:06.410Z,15.68
2022-10-31T08:47:33.752Z,13.63
2022-10-31T08:50:00.321Z,14.07
2022-10-31T08:52:51.267Z,11.20
2022-10-31T08:55:14.426Z,12.10
2022-10-31T08:57:46.884Z,12.40
2022-10-31T09:00:13.780Z,12.75
2022-10-31T09:02:59.172Z,11.32
2022-10-31T09:05:26.878Z,18.77
2022-10-31T09:08:01.118Z,19.38
2022-10-31T09:10:30.006Z,19.23
2022-10-31T09:13:01.787Z,19.23
2022-10-31T09:15:59.484Z,22.60
2022-10-31T09:18:28.809Z,22.73
2022-10-31T09:20:59.981Z,15.95
2022-10-31T09:23:28.602Z,17.75
2022-10-31T09:25:55.648Z,21.58
2022-10-31T09:28:32.665Z,27.40
2022-10-31T09:31:05.615Z,22.97
2022-10-31T09:33:47.033Z,31.67
2022-10-31T09:36:38.223Z,20.88
2022-10-31T09:39:08.279Z,28.05
2022-10-31T09:41:56.273Z,21.58
2022-10-31T09:44:34.729Z,24.50
2022-10-31T09:47:28.184Z,20.77
2022-10-31T09:50:27.037Z,23.77
2022-10-31T09:53:10.905Z,23.23
2022-10-31T09:55:41.966Z,29.75
2022-10-31T09:58:23.397Z,24.67
2022-10-31T10:00:50.252Z,21.20
2022-10-31T10:03:47.016Z,24.15
2022-10-31T10:06:45.622Z,18.02
2022-10-31T10:09:45.478Z,20.65
2022-10-31T10:13:22.729Z,19.88
2022-10-31T10:16:21.303Z,28.38
2022-10-31T10:18:50.560Z,26.77
2022-10-31T10:21:43.261Z,29.17
2022-10-31T10:24:48.712Z,21.88
2022-10-31T10:27:52.664Z,22.77
2022-10-31T10:30:22.732Z,34.35
2022-10-31T10:32:53.901Z,30.52
2022-10-31T10:35:23.953Z,22.55
2022-10-31T10:37:54.059Z,30.27
2022-10-31T10:40:25.035Z,21.38
2022-10-31T10:43:18.311Z,20.65
2022-10-31T10:46:11.613Z,24.13
2022-10-31T10:48:51.073Z,34.20
2022-10-31T10:51:54.703Z,23.35
2022-10-31T10:54:39.801Z,23.00
2022-10-31T10:57:27.652Z,17.52
2022-10-31T10:59:54.279Z,27.10
2022-10-31T11:02:25.274Z,28.10
2022-10-31T11:11:50.191Z,24.45
2022-10-31T11:14:18.955Z,24.00
2022-10-31T11:16:48.739Z,28.08
2022-10-31T11:19:22.020Z,22.63
2022-10-31T11:21:52.871Z,26.27
2022-10-31T11:24:26.993Z,23.05
2022-10-31T11:27:11.507Z,23.40
2022-10-31T11:29:38.019Z,25.10
2022-10-31T11:32:05.007Z,21.42
2022-10-31T11:34:33.988Z,31.85
2022-10-31T11:37:13.752Z,25.02
2022-10-31T11:40:09.987Z,28.42
2022-10-31T11:42:42.670Z,24.80
2022-10-31T11:45:30.363Z,30.55
2022-10-31T11:47:59.835Z,25.95
2022-10-31T11:50:40.175Z,26.65
2022-10-31T11:53:17.685Z,19.70
2022-10-31T11:55:46.264Z,23.02
2022-10-31T11:58:26.993Z,27.00
2022-10-31T12:00:56.101Z,29.42
2022-10-31T12:03:41.609Z,21.88
2022-10-31T12:06:19.399Z,23.20
2022-10-31T12:08:47.336Z,22.20
2022-10-31T12:11:16.840Z,18.50
2022-10-31T12:14:04.005Z,21.25
2022-10-31T12:16:51.282Z,19.10
2022-10-31T12:19:31.417Z,15.02
2022-10-31T12:22:07.495Z,21.95
2022-10-31T12:24:55.251Z,17.67
2022-10-31T12:27:57.273Z,24.42
2022-10-31T12:30:36.196Z,18.92
2022-10-31T12:33:32.800Z,16.52
2022-10-31T12:36:27.289Z,19.15
2022-10-31T12:39:20.373Z,28.40
2022-10-31T12:41:53.770Z,24.58
2022-10-31T12:44:48.123Z,23.67
2022-10-31T12:47:37.978Z,15.82
2022-10-31T12:50:21.817Z,20.75
2022-10-31T12:53:11.622Z,25.02
2022-10-31T12:56:06.041Z,21.23
2022-10-31T12:58:45.217Z,17.15
2022-10-31T13:01:25.534Z,24.10
2022-10-31T13:04:05.226Z,18.92
2022-10-31T13:06:44.745Z,25.75
2022-10-31T13:09:17.978Z,21.58
2022-10-31T13:12:09.357Z,21.40
2022-10-31T13:14:50.961Z,28.58
2022-10-31T13:17:40.772Z,21.00
2022-10-31T13:20:39.654Z,27.13
2022-10-31T13:23:48.569Z,20.90
2022-10-31T13:26:14.661Z,22.67
2022-10-31T13:31:24.659Z,25.30
2022-10-31T13:33:56.824Z,20.38
2022-10-31T13:36:44.108Z,22.55
2022-10-31T13:39:49.165Z,19.10
2022-10-31T13:42:26.964Z,23.73
2022-10-31T13:44:53.518Z,28.35
2022-10-31T13:47:26.377Z,21.42
2022-10-31T13:50:04.653Z,25.70
2022-10-31T13:52:31.533Z,26.50
2022-10-31T13:54:58.103Z,25.48
2022-10-31T13:57:34.023Z,27.67
2022-10-31T14:00:22.573Z,24.92
2022-10-31T14:02:52.901Z,17.48
2022-10-31T14:05:25.978Z,26.65
2022-10-31T14:07:55.580Z,21.95
2022-10-31T14:10:31.972Z,19.70
2022-10-31T14:13:23.430Z,19.83
2022-10-31T14:15:59.383Z,18.50
2022-10-31T14:18:32.107Z,20.80
2022-10-31T14:20:59.066Z,19.42
2022-10-31T14:23:33.572Z,15.63
2022-10-31T14:26:27.040Z,23.00
2022-10-31T14:28:56.370Z,19.48
2022-10-31T14:31:36.679Z,22.17
2022-10-31T14:34:27.820Z,21.08
2022-10-31T14:37:02.254Z,25.17
2022-10-31T14:39:41.322Z,20.45
2022-10-31T14:42:29.739Z,20.10
2022-10-31T14:45:05.508Z,22.75
2022-10-31T14:50:07.956Z,24.67
2022-10-31T14:52:38.209Z,25.20
2022-10-31T14:55:11.262Z,18.33
2022-10-31T14:57:44.055Z,19.77
2022-10-31T15:00:32.080Z,15.75
2022-10-31T15:03:25.716Z,21.92
2022-10-31T15:05:56.557Z,20.98
2022-10-31T15:08:39.888Z,17.75
2022-10-31T15:11:25.457Z,27.15
2022-10-31T15:14:00.596Z,20.45
2022-10-31T15:16:38.995Z,18.70
2022-10-31T15:19:12.898Z,19.30
2022-10-31T15:21:46.947Z,21.02
2022-10-31T15:24:17.554Z,17.40
2022-10-31T15:26:47.453Z,19.45
2022-10-31T15:29:16.686Z,17.50
2022-10-31T15:32:00.777Z,18.73
2022-10-31T15:34:45.800Z,20.27
2022-10-31T15:37:14.714Z,24.00
2022-10-31T15:39:42.281Z,24.50
2022-10-31T15:42:42.575Z,19.33
2022-10-31T15:45:12.229Z,55.38
2022-10-31T15:47:40.228Z,23.15
2022-10-31T15:50:21.598Z,16.85
2022-10-31T15:52:49.167Z,44.83
2022-10-31T15:55:20.802Z,33.28
2022-10-31T15:57:51.320Z,15.52
2022-10-31T16:00:29.098Z,24.00
2022-10-31T16:03:06.304Z,22.17
2022-10-31T16:05:39.665Z,23.58
2022-10-31T16:08:32.179Z,22.88
2022-10-31T16:11:00.875Z,18.88
2022-10-31T16:13:30.831Z,23.05
2022-10-31T16:16:32.819Z,23.77
2022-10-31T16:18:50.256Z,16.63
2022-10-31T16:21:25.025Z,23.38
2022-10-31T16:23:58.434Z,24.00
2022-10-31T16:26:26.231Z,23.67
2022-10-31T16:29:03.280Z,19.10
2022-10-31T16:31:39.241Z,22.17
2022-10-31T16:34:15.047Z,24.08
2022-10-31T16:36:42.174Z,22.17
2022-10-31T16:39:09.104Z,25.38
2022-10-31T16:41:40.482Z,22.08
2022-10-31T16:44:17.551Z,21.55
2022-10-31T16:46:44.391Z,16.08
2022-10-31T16:49:11.192Z,19.77
2022-10-31T16:51:37.828Z,17.48
2022-10-31T16:54:05.337Z,21.02
2022-10-31T16:56:35.138Z,18.48
2022-10-31T16:59:05.043Z,16.85
2022-10-31T17:01:32.410Z,12.43
2022-10-31T17:03:59.118Z,18.33
2022-10-31T17:06:28.516Z,20.48
2022-10-31T17:08:55.515Z,15.25
2022-10-31T17:11:25.569Z,16.13
2022-10-31T17:13:53.642Z,21.73
2022-10-31T17:16:20.294Z,12.50
2022-10-31T17:18:47.513Z,18.30
2022-10-31T17:21:27.980Z,19.23
2022-10-31T17:23:54.675Z,18.65
2022-10-31T17:26:21.631Z,22.55
2022-10-31T17:28:48.903Z,17.63
2022-10-31T17:31:22.456Z,16.27
2022-10-31T17:33:50.288Z,19.30
2022-10-31T17:36:17.005Z,17.45
2022-10-31T17:38:43.586Z,18.67
2022-10-31T17:41:11.447Z,19.80
2022-10-31T17:43:38.573Z,15.32
2022-10-31T17:46:05.766Z,20.13
2022-10-31T17:48:35.064Z,20.88
2022-10-31T17:51:06.258Z,18.88
2022-10-31T17:53:34.448Z,25.88
2022-10-31T17:56:06.502Z,19.50
2022-10-31T17:58:35.453Z,17.67
2022-10-31T18:01:08.494Z,22.02
2022-10-31T18:03:35.607Z,14.77
2022-10-31T18:06:02.310Z,12.18
2022-10-31T18:08:31.492Z,22.27
2022-10-31T18:11:00.412Z,14.88
2022-10-31T18:13:30.066Z,18.13
2022-10-31T18:15:56.704Z,18.42
2022-10-31T18:18:23.459Z,21.80
2022-10-31T18:20:50.321Z,11.93
2022-10-31T18:23:16.873Z,17.58
2022-10-31T18:25:43.741Z,15.10
2022-10-31T18:28:10.728Z,15.40
2022-10-31T18:30:41.532Z,17.10
2022-10-31T18:33:09.556Z,17.52
2022-10-31T18:35:38.001Z,14.10
2022-10-31T18:38:06.746Z,13.68
2022-10-31T18:40:35.766Z,16.85
2022-10-31T18:43:03.441Z,15.13
2022-10-31T18:45:41.716Z,14.00
2022-10-31T18:48:14.814Z,13.52
2022-10-31T18:50:42.144Z,10.40
2022-10-31T18:53:09.433Z,14.40
2022-10-31T18:55:45.529Z,12.02
2022-10-31T18:58:16.999Z,12.02
2022-10-31T19:00:43.691Z,15.63
2022-10-31T19:03:10.391Z,13.98
2022-10-31T19:05:37.119Z,20.38
2022-10-31T19:08:04.536Z,8.00
2022-10-31T19:10:31.213Z,14.85
2022-10-31T19:12:57.845Z,11.70
2022-10-31T19:15:25.957Z,13.85
2022-10-31T19:17:52.594Z,13.00
2022-10-31T19:20:19.130Z,11.43
2022-10-31T19:22:45.845Z,12.57
2022-10-31T19:25:12.487Z,12.05
2022-10-31T19:27:39.521Z,12.65
2022-10-31T19:30:07.260Z,9.85
2022-10-31T19:32:34.331Z,11.57
2022-10-31T19:35:01.077Z,15.90
2022-10-31T19:37:27.590Z,16.25
2022-10-31T19:39:54.349Z,17.10
2022-10-31T19:42:20.943Z,12.77
2022-10-31T19:44:47.518Z,11.85
2022-10-31T19:47:14.149Z,15.05
2022-10-31T19:49:40.675Z,9.90
2022-10-31T19:52:07.489Z,10.30
2022-10-31T19:54:34.210Z,9.98
2022-10-31T19:57:01.100Z,7.45
2022-10-31T19:59:27.782Z,9.23
2022-10-31T20:01:54.508Z,9.88
2022-10-31T20:04:21.185Z,8.40
2022-10-31T20:06:48.044Z,16.02
2022-10-31T20:09:15.064Z,11.05
2022-10-31T20:11:44.030Z,6.68
2022-10-31T20:14:13.204Z,12.55
2022-10-31T20:16:40.054Z,11.20
2022-10-31T20:19:06.811Z,7.63
2022-10-31T20:21:38.290Z,11.20
2022-10-31T20:24:07.675Z,14.63
2022-10-31T20:26:35.520Z,7.15
2022-10-31T20:29:03.016Z,11.07
2022-10-31T20:31:33.011Z,7.32
2022-10-31T20:34:00.196Z,13.68
2022-10-31T20:36:28.679Z,6.25
2022-10-31T20:38:55.492Z,14.27
2022-10-31T20:41:22.060Z,10.73
2022-10-31T20:43:48.683Z,6.38
2022-10-31T20:46:17.991Z,6.53
2022-10-31T20:48:45.589Z,6.40
2022-10-31T20:51:17.885Z,9.15
2022-10-31T20:53:45.048Z,12.27
2022-10-31T20:56:15.396Z,9.50
2022-10-31T20:58:43.485Z,7.55
2022-10-31T21:01:32.944Z,5.28
2022-10-31T21:03:59.797Z,10.73
2022-10-31T21:06:26.628Z,9.70
2022-10-31T21:08:54.527Z,9.13
2022-10-31T21:11:23.346Z,12.05
2022-10-31T21:13:51.190Z,7.78
2022-10-31T21:16:23.502Z,6.45
2022-10-31T21:18:51.484Z,13.20
2022-10-31T21:21:38.063Z,9.10
2022-10-31T21:24:12.188Z,10.73
2022-10-31T21:26:42.077Z,10.07
2022-10-31T21:29:10.542Z,12.07
2022-10-31T21:31:38.383Z,6.35
2022-10-31T21:34:05.372Z,8.02
2022-10-31T21:36:32.447Z,8.00
2022-10-31T21:38:59.478Z,22.45
2022-10-31T21:41:27.044Z,7.63
2022-10-31T21:43:54.602Z,2.83
2022-10-31T21:46:24.010Z,9.80
2022-10-31T21:48:50.980Z,7.32
2022-10-31T21:51:29.518Z,9.43
2022-10-31T21:54:15.726Z,6.10
2022-10-31T21:59:10.067Z,10.63
2022-10-31T22:01:37.069Z,5.35
2022-10-31T22:04:04.152Z,4.75
2022-10-31T22:06:30.942Z,7.30
2022-10-31T22:09:00.090Z,11.05
2022-10-31T22:11:30.807Z,9.70
2022-10-31T22:14:01.492Z,7.65
2022-10-31T22:16:29.744Z,3.88
2022-10-31T22:18:58.854Z,4.28
2022-10-31T22:21:27.325Z,3.95
2022-10-31T22:23:56.421Z,7.85
2022-10-31T22:26:24.097Z,10.52
2022-10-31T22:28:53.457Z,4.15
2022-10-31T22:31:21.878Z,4.88
2022-10-31T22:33:48.965Z,5.95
2022-10-31T22:36:17.922Z,8.07
2022-10-31T22:38:45.206Z,6.68
2022-10-31T22:41:20.262Z,4.68
2022-10-31T22:43:48.247Z,4.32
2022-10-31T22:46:17.165Z,10.40
2022-10-31T22:48:46.798Z,6.35
2022-10-31T22:51:19.117Z,3.50
2022-10-31T22:53:47.031Z,4.78
2022-10-31T22:56:19.695Z,10.77
2022-10-31T22:58:46.792Z,5.28
2022-10-31T23:01:19.438Z,7.72
2022-10-31T23:03:46.831Z,7.93
2022-10-31T23:06:19.852Z,4.25
2022-10-31T23:08:47.313Z,9.18
2022-10-31T23:11:25.774Z,4.22
2022-10-31T23:14:09.300Z,8.57
2022-10-31T23:16:37.350Z,7.03
2022-10-31T23:19:07.857Z,5.85
2022-10-31T23:21:55.616Z,3.42
2022-10-31T23:24:42.988Z,3.55
2022-10-31T23:27:13.337Z,3.67
2022-10-31T23:29:59.602Z,4.72
2022-10-31T23:32:32.047Z,5.00
2022-10-31T23:35:01.126Z,4.72
2022-10-31T23:37:29.966Z,8.07
2022-10-31T23:39:57.020Z,3.90
2022-10-31T23:42:24.697Z,3.15
2022-10-31T23:44:51.505Z,8.35
2022-10-31T23:47:19.338Z,8.15
2022-10-31T23:49:46.539Z,5.43
2022-10-31T23:52:13.896Z,8.48
2022-10-31T23:54:41.378Z,7.13
2022-10-31T23:57:09.906Z,5.30
2022-10-31T23:59:36.812Z,9.43
